Time;durP1;ratioP1;P1;durP2;ratioP2;P2;SDS_P1;SDS_P2;PMS_P1;PMS_P2;Temp;Humidity;BMP_temperature;BMP_pressure;BME280_temperature;BME280_humidity;BME280_pressure;Samples;Min_cycle;Max_cycle;Signal;HPM_P1;HPM_P2
2023/11/30 00:01:52;;;;;;;20.10;10.00;;;;;;;-2.57;64.01;101008.05;107659;1251;113135;-61
2023/11/30 00:04:21;;;;;;;25.50;9.90;;;;;;;-2.62;64.18;101008.54;107610;1256;109976;-61
2023/11/30 00:06:50;;;;;;;24.50;10.50;;;;;;;-2.67;63.90;101007.98;107574;1254;107650;-62
2023/11/30 00:09:18;;;;;;;31.30;11.70;;;;;;;-2.72;64.03;101007.43;107620;1256;99173;-61
2023/11/30 00:11:46;;;;;;;28.70;12.10;;;;;;;-2.76;64.39;101012.81;107683;1251;99103;-63
2023/11/30 00:14:15;;;;;;;25.80;11.50;;;;;;;-2.78;64.57;101015.52;107663;1251;114060;-61
2023/11/30 00:16:43;;;;;;;33.20;13.10;;;;;;;-2.82;64.51;101018.61;107551;1251;109639;-61
2023/11/30 00:19:11;;;;;;;39.80;15.60;;;;;;;-2.87;64.77;101025.59;107531;1253;107482;-61
2023/11/30 00:21:39;;;;;;;83.10;27.10;;;;;;;-2.90;65.18;101032.70;107605;1251;99205;-63
2023/11/30 00:24:07;;;;;;;61.70;20.80;;;;;;;-2.93;64.79;101031.92;107620;1253;99199;-65
2023/11/30 00:26:35;;;;;;;45.80;17.00;;;;;;;-2.98;65.14;101033.43;107619;1251;112262;-61
2023/11/30 00:29:05;;;;;;;38.50;14.80;;;;;;;-3.00;65.20;101037.70;107643;1251;108812;-62
2023/11/30 00:31:33;;;;;;;28.80;14.20;;;;;;;-3.01;65.10;101038.96;107447;1253;106933;-62
2023/11/30 00:34:01;;;;;;;34.90;14.70;;;;;;;-3.05;65.16;101042.93;107371;1253;99635;-61
2023/11/30 00:36:29;;;;;;;32.20;13.60;;;;;;;-3.07;65.44;101037.23;107467;1254;99131;-60
2023/11/30 00:38:58;;;;;;;31.70;13.40;;;;;;;-3.09;65.82;101040.42;107419;1253;113329;-61
2023/11/30 00:41:26;;;;;;;32.70;14.60;;;;;;;-3.11;65.63;101038.20;107598;1253;110473;-62
2023/11/30 00:43:54;;;;;;;29.20;13.60;;;;;;;-3.11;65.91;101042.42;107664;1251;107087;-61
2023/11/30 00:46:23;;;;;;;25.90;13.10;;;;;;;-3.12;65.89;101043.33;107435;1253;99179;-63
2023/11/30 00:48:52;;;;;;;29.40;12.80;;;;;;;-3.12;65.77;101045.09;107440;1253;99229;-62
2023/11/30 00:51:20;;;;;;;45.60;20.00;;;;;;;-3.11;66.23;101046.11;107638;1256;113598;-62
2023/11/30 00:53:48;;;;;;;48.90;19.50;;;;;;;-3.11;66.52;101047.83;107642;1250;110028;-61
2023/11/30 00:56:16;;;;;;;44.00;17.30;;;;;;;-3.09;66.48;101050.44;107595;1254;108267;-63
2023/11/30 00:58:45;;;;;;;36.70;14.90;;;;;;;-3.09;66.46;101056.03;107603;1253;99186;-62
2023/11/30 01:01:13;;;;;;;47.10;15.50;;;;;;;-3.06;66.94;101056.11;107392;1251;99242;-61
2023/11/30 01:03:41;;;;;;;39.20;14.30;;;;;;;-3.05;67.19;101054.33;107399;1251;112663;-62
2023/11/30 01:06:10;;;;;;;36.50;13.80;;;;;;;-3.03;66.79;101057.61;107629;1251;110756;-61
2023/11/30 01:08:38;;;;;;;40.50;16.00;;;;;;;-3.03;67.09;101057.79;107565;1251;108577;-62
2023/11/30 01:11:06;;;;;;;32.50;14.00;;;;;;;-3.03;67.05;101052.38;107605;1251;99302;-61
2023/11/30 01:13:34;;;;;;;34.50;13.60;;;;;;;-3.06;67.53;101056.14;107588;1251;99041;-64
2023/11/30 01:16:03;;;;;;;28.60;13.20;;;;;;;-3.07;67.09;101059.14;107565;1253;112744;-64
2023/11/30 01:18:32;;;;;;;30.20;13.80;;;;;;;-3.06;67.48;101057.89;107655;1253;109952;-62
2023/11/30 01:21:01;;;;;;;30.80;14.70;;;;;;;-3.06;67.27;101058.23;107602;1251;107519;-62
2023/11/30 01:23:29;;;;;;;32.00;13.90;;;;;;;-3.05;67.31;101062.39;107608;1251;99284;-61
2023/11/30 01:25:57;;;;;;;31.50;14.90;;;;;;;-3.02;67.09;101066.56;107650;1251;99077;-62
2023/11/30 01:28:25;;;;;;;32.00;15.40;;;;;;;-3.01;67.31;101061.95;107653;1251;112551;-63
2023/11/30 01:30:54;;;;;;;33.10;15.50;;;;;;;-3.01;67.47;101059.84;107627;1251;109210;-62
2023/11/30 01:33:22;;;;;;;46.00;19.10;;;;;;;-3.03;67.18;101071.50;107648;1253;107541;-63
2023/11/30 01:35:51;;;;;;;50.90;18.50;;;;;;;-3.08;66.99;101072.67;107655;1251;99180;-62
2023/11/30 01:38:20;;;;;;;68.50;20.20;;;;;;;-3.12;66.48;101071.39;107637;1251;99178;-62
2023/11/30 01:40:48;;;;;;;43.20;18.30;;;;;;;-3.17;66.38;101070.81;107482;1253;113059;-61
2023/11/30 01:43:18;;;;;;;40.70;17.70;;;;;;;-3.22;66.61;101072.70;107445;1251;110004;-64
2023/11/30 01:45:47;;;;;;;45.90;18.30;;;;;;;-3.29;66.51;101073.23;107616;1251;108067;-61
2023/11/30 01:48:20;;;;;;;42.60;15.60;;;;;;;-3.35;66.62;101081.46;107589;1253;99252;-60
2023/11/30 01:50:49;;;;;;;38.80;16.40;;;;;;;-3.43;66.35;101087.80;107651;1251;99314;-61
2023/11/30 01:53:18;;;;;;;36.40;17.00;;;;;;;-3.51;66.17;101089.92;107488;1251;112595;-61
2023/11/30 01:55:47;;;;;;;32.50;14.80;;;;;;;-3.61;65.99;101088.08;107447;1254;109857;-61
2023/11/30 01:58:16;;;;;;;32.80;14.40;;;;;;;-3.70;66.25;101091.80;107425;1254;108598;-62
2023/11/30 02:00:44;;;;;;;31.60;14.20;;;;;;;-3.79;65.96;101097.60;107440;1253;99159;-61
2023/11/30 02:03:13;;;;;;;39.20;15.40;;;;;;;-3.87;66.08;101100.27;107673;1251;99859;-62
2023/11/30 02:05:42;;;;;;;32.40;15.40;;;;;;;-3.96;66.14;101100.09;107564;1254;112117;-62
2023/11/30 02:08:10;;;;;;;48.80;16.70;;;;;;;-4.02;66.28;101099.73;107590;1250;109200;-63
2023/11/30 02:10:39;;;;;;;36.90;16.30;;;;;;;-4.07;66.47;101107.55;107443;1251;107305;-61
2023/11/30 02:13:07;;;;;;;36.50;17.10;;;;;;;-4.12;66.46;101110.98;107597;1256;99168;-63
2023/11/30 02:15:36;;;;;;;35.10;16.30;;;;;;;-4.18;66.50;101108.84;107602;1253;99086;-66
2023/11/30 02:18:04;;;;;;;32.70;15.10;;;;;;;-4.22;66.50;101110.83;107653;1253;113548;-63
2023/11/30 02:20:32;;;;;;;42.90;14.70;;;;;;;-4.27;66.78;101103.05;107452;1253;109270;-61
2023/11/30 02:23:01;;;;;;;37.00;14.70;;;;;;;-4.31;66.99;101109.10;107387;1251;107906;-60
2023/11/30 02:25:29;;;;;;;32.20;15.30;;;;;;;-4.36;67.02;101115.33;107422;1253;99202;-61
2023/11/30 02:27:58;;;;;;;31.20;13.90;;;;;;;-4.40;67.10;101126.80;107648;1253;99064;-60
2023/11/30 02:30:27;;;;;;;35.40;14.80;;;;;;;-4.44;67.00;101130.90;107484;1252;112657;-63
2023/11/30 02:32:55;;;;;;;30.20;14.60;;;;;;;-4.45;67.01;101134.45;107648;1253;109332;-62
2023/11/30 02:35:24;;;;;;;30.60;15.00;;;;;;;-4.48;67.17;101133.98;107635;1253;107270;-61
2023/11/30 02:37:52;;;;;;;32.30;14.50;;;;;;;-4.51;66.95;101128.07;107630;1253;99218;-61
2023/11/30 02:40:21;;;;;;;32.90;13.60;;;;;;;-4.54;66.95;101126.22;107654;1255;99073;-62
2023/11/30 02:42:49;;;;;;;34.80;13.30;;;;;;;-4.58;67.19;101125.05;107632;1256;112141;-61
2023/11/30 02:45:17;;;;;;;39.10;15.40;;;;;;;-4.59;67.30;101126.65;107612;1250;110931;-60
2023/11/30 02:47:45;;;;;;;40.10;14.80;;;;;;;-4.61;67.24;101127.22;107546;1253;108383;-61
2023/11/30 02:50:14;;;;;;;31.50;12.60;;;;;;;-4.63;67.59;101123.42;107645;1253;99171;-61
2023/11/30 02:52:43;;;;;;;30.40;14.60;;;;;;;-4.66;67.55;101116.64;107629;1252;99229;-62
2023/11/30 02:55:11;;;;;;;31.80;15.20;;;;;;;-4.68;67.59;101117.21;107473;1253;112756;-62
2023/11/30 02:57:40;;;;;;;33.90;15.40;;;;;;;-4.70;67.77;101121.27;107614;1253;109041;-62
2023/11/30 03:00:09;;;;;;;34.70;14.30;;;;;;;-4.74;67.91;101123.80;107635;1253;108233;-61
2023/11/30 03:02:37;;;;;;;33.00;14.50;;;;;;;-4.77;67.78;101127.87;107639;1253;99199;-61
2023/11/30 03:05:06;;;;;;;31.60;15.00;;;;;;;-4.78;67.62;101132.44;107650;1251;99688;-61
2023/11/30 03:07:34;;;;;;;30.20;15.80;;;;;;;-4.78;67.67;101131.40;107597;1251;112857;-60
2023/11/30 03:10:02;;;;;;;39.50;17.60;;;;;;;-4.78;67.87;101137.52;107574;1251;109825;-62
2023/11/30 03:12:31;;;;;;;37.00;16.90;;;;;;;-4.78;67.75;101138.40;107501;1253;107857;-62
2023/11/30 03:14:59;;;;;;;33.80;15.10;;;;;;;-4.77;67.81;101143.80;107609;1251;99883;-61
2023/11/30 03:17:28;;;;;;;33.60;15.70;;;;;;;-4.75;68.14;101146.05;107616;1253;99061;-61
2023/11/30 03:19:56;;;;;;;32.70;15.90;;;;;;;-4.73;68.59;101138.13;107639;1253;112741;-62
2023/11/30 03:22:24;;;;;;;41.20;15.70;;;;;;;-4.70;68.80;101130.03;107583;1253;109894;-61
2023/11/30 03:24:52;;;;;;;37.50;16.30;;;;;;;-4.67;68.56;101135.20;107425;1251;107433;-61
2023/11/30 03:27:22;;;;;;;47.80;17.60;;;;;;;-4.64;69.10;101131.33;107550;1253;99175;-60
2023/11/30 03:29:50;;;;;;;32.00;16.20;;;;;;;-4.60;68.98;101135.95;107627;1253;99296;-61
2023/11/30 03:32:19;;;;;;;30.20;15.30;;;;;;;-4.58;69.14;101132.05;107618;1252;112961;-60
2023/11/30 03:34:48;;;;;;;43.40;16.60;;;;;;;-4.55;69.34;101130.61;107439;1253;109253;-62
2023/11/30 03:37:16;;;;;;;43.40;17.30;;;;;;;-4.50;69.47;101129.81;107604;1251;108540;-61
2023/11/30 03:39:44;;;;;;;40.20;17.70;;;;;;;-4.47;69.54;101133.59;107466;1251;99179;-61
2023/11/30 03:42:12;;;;;;;45.00;17.50;;;;;;;-4.44;69.41;101134.59;107598;1251;99179;-61
2023/11/30 03:44:41;;;;;;;39.20;15.80;;;;;;;-4.43;69.48;101137.02;107560;1251;113176;-60
2023/11/30 03:47:09;;;;;;;35.10;16.20;;;;;;;-4.40;69.45;101139.05;107534;1253;109838;-62
2023/11/30 03:49:37;;;;;;;38.40;15.10;;;;;;;-4.37;69.57;101139.70;107627;1253;108754;-60
2023/11/30 03:52:06;;;;;;;37.50;14.90;;;;;;;-4.39;69.39;101142.17;107606;1253;99285;-59
2023/11/30 03:54:34;;;;;;;38.80;16.20;;;;;;;-4.40;69.47;101146.05;107613;1255;99092;-62
2023/11/30 03:57:03;;;;;;;83.70;23.60;;;;;;;-4.43;69.29;101148.92;107479;1253;113129;-61
2023/11/30 03:59:31;;;;;;;89.80;25.20;;;;;;;-4.47;69.34;101148.48;107671;1253;109075;-61
2023/11/30 04:01:59;;;;;;;84.60;23.30;;;;;;;-4.53;68.79;101155.07;107602;1251;107177;-59
2023/11/30 04:04:29;;;;;;;77.70;24.10;;;;;;;-4.60;68.93;101152.06;107572;1253;99897;-61
2023/11/30 04:06:57;;;;;;;95.50;25.70;;;;;;;-4.63;68.89;101154.94;107491;1251;99724;-63
2023/11/30 04:09:26;;;;;;;90.90;25.40;;;;;;;-4.69;68.69;101154.50;107457;1251;113294;-65
2023/11/30 04:11:54;;;;;;;84.60;22.60;;;;;;;-4.75;68.53;101150.07;107690;1251;109932;-60
2023/11/30 04:14:22;;;;;;;62.50;19.30;;;;;;;-4.81;68.39;101155.44;107441;1252;107450;-63
2023/11/30 04:16:51;;;;;;;45.00;17.30;;;;;;;-4.89;68.48;101159.08;107541;1253;99875;-61
2023/11/30 04:19:19;;;;;;;41.60;16.20;;;;;;;-4.95;68.06;101161.45;107657;1253;99238;-61
2023/11/30 04:21:47;;;;;;;51.10;17.80;;;;;;;-5.00;68.16;101158.94;107681;1251;112229;-61
2023/11/30 04:24:16;;;;;;;68.60;21.60;;;;;;;-5.07;68.04;101157.64;107440;1253;110946;-60
2023/11/30 04:26:44;;;;;;;80.50;24.40;;;;;;;-5.14;67.97;101158.65;107586;1251;108539;-60
2023/11/30 04:29:12;;;;;;;127.60;37.50;;;;;;;-5.23;67.77;101165.08;107610;1251;99041;-60
2023/11/30 04:31:41;;;;;;;184.70;46.00;;;;;;;-5.28;68.00;101167.10;107434;1252;99305;-60
2023/11/30 04:34:09;;;;;;;141.90;43.70;;;;;;;-5.33;68.16;101158.61;107578;1252;112684;-60
2023/11/30 04:36:37;;;;;;;150.30;43.80;;;;;;;-5.38;68.38;101163.92;107617;1255;110776;-62
2023/11/30 04:39:06;;;;;;;111.80;32.20;;;;;;;-5.41;68.09;101160.50;107471;1252;107017;-61
2023/11/30 04:41:35;;;;;;;102.70;29.20;;;;;;;-5.44;68.28;101159.66;107476;1251;99260;-61
2023/11/30 04:44:04;;;;;;;74.50;23.60;;;;;;;-5.48;68.11;101163.39;107588;1251;99730;-61
2023/11/30 04:46:33;;;;;;;49.30;18.30;;;;;;;-5.50;67.84;101169.19;107486;1252;111415;-61
2023/11/30 04:49:01;;;;;;;37.50;16.80;;;;;;;-5.53;68.08;101171.17;107438;1253;107851;-61
2023/11/30 04:51:30;;;;;;;40.70;15.00;;;;;;;-5.55;68.39;101174.69;107487;1251;108221;-59
2023/11/30 04:53:58;;;;;;;34.50;14.20;;;;;;;-5.58;68.42;101175.95;107651;1253;99283;-62
2023/11/30 04:56:27;;;;;;;49.90;16.70;;;;;;;-5.60;68.50;101177.04;107482;1256;99074;-64
2023/11/30 04:58:55;;;;;;;42.30;17.80;;;;;;;-5.63;68.64;101176.21;107456;1252;112495;-60
2023/11/30 05:01:24;;;;;;;41.10;19.40;;;;;;;-5.66;68.46;101181.31;107657;1252;109749;-62
2023/11/30 05:03:52;;;;;;;41.40;19.60;;;;;;;-5.68;68.58;101185.01;107603;1253;107881;-63
2023/11/30 05:06:21;;;;;;;39.50;17.60;;;;;;;-5.69;68.59;101183.44;107592;1253;99200;-61
2023/11/30 05:08:50;;;;;;;36.30;15.00;;;;;;;-5.70;68.47;101179.27;107676;1253;99705;-61
2023/11/30 05:11:18;;;;;;;33.50;15.00;;;;;;;-5.72;68.46;101188.38;107601;1252;112472;-59
2023/11/30 05:13:46;;;;;;;35.90;15.30;;;;;;;-5.75;68.77;101196.12;107627;1253;109489;-61
2023/11/30 05:16:14;;;;;;;37.20;15.20;;;;;;;-5.78;68.73;101189.52;107613;1253;106880;-61
2023/11/30 05:18:43;;;;;;;33.80;14.70;;;;;;;-5.82;68.96;101190.80;107663;1253;99201;-62
2023/11/30 05:21:11;;;;;;;30.90;14.30;;;;;;;-5.84;68.86;101192.75;107639;1251;99179;-62
2023/11/30 05:23:39;;;;;;;37.90;17.40;;;;;;;-5.86;68.73;101191.20;107564;1253;113332;-61
2023/11/30 05:26:07;;;;;;;33.30;15.20;;;;;;;-5.86;69.44;101186.14;107681;1251;108617;-62
2023/11/30 05:28:35;;;;;;;43.30;18.80;;;;;;;-5.88;68.97;101188.98;107592;1251;108334;-62
2023/11/30 05:31:04;;;;;;;38.00;15.50;;;;;;;-5.86;69.45;101189.98;107563;1251;99227;-61
2023/11/30 05:33:32;;;;;;;31.10;13.80;;;;;;;-5.82;69.77;101195.33;107688;1251;99193;-62
2023/11/30 05:36:01;;;;;;;36.70;14.50;;;;;;;-5.76;69.84;101198.77;107623;1251;113299;-61
2023/11/30 05:38:29;;;;;;;29.90;13.70;;;;;;;-5.68;70.30;101192.35;107601;1252;109230;-61
2023/11/30 05:40:57;;;;;;;35.80;15.50;;;;;;;-5.58;70.32;101195.52;107610;1251;108665;-62
2023/11/30 05:43:25;;;;;;;33.20;15.80;;;;;;;-5.50;70.60;101202.05;107563;1255;99182;-62
2023/11/30 05:45:54;;;;;;;32.80;15.00;;;;;;;-5.42;70.86;101209.44;107636;1251;99090;-61
2023/11/30 05:48:22;;;;;;;33.10;14.90;;;;;;;-5.32;70.77;101214.89;107626;1253;113410;-62
2023/11/30 05:50:50;;;;;;;32.10;14.00;;;;;;;-5.26;71.23;101214.46;107606;1251;109812;-60
2023/11/30 05:53:18;;;;;;;26.30;12.20;;;;;;;-5.25;71.19;101218.44;107603;1255;108306;-62
2023/11/30 05:55:47;;;;;;;26.20;11.90;;;;;;;-5.22;70.95;101221.90;107642;1251;99080;-62
2023/11/30 05:58:15;;;;;;;33.00;12.70;;;;;;;-5.17;70.93;101227.44;107590;1255;99308;-61
2023/11/30 06:00:43;;;;;;;29.50;13.00;;;;;;;-5.12;70.99;101231.52;107566;1253;112968;-62
2023/11/30 06:03:12;;;;;;;30.00;13.00;;;;;;;-5.03;70.97;101231.21;107620;1253;109899;-61
2023/11/30 06:05:40;;;;;;;27.20;11.70;;;;;;;-4.96;71.22;101236.70;107510;1251;108004;-60
2023/11/30 06:08:08;;;;;;;33.30;12.90;;;;;;;-4.87;70.91;101235.68;107623;1253;99176;-60
2023/11/30 06:10:37;;;;;;;30.80;12.30;;;;;;;-4.80;71.22;101236.94;107590;1253;99921;-62
2023/11/30 06:13:07;;;;;;;31.60;12.10;;;;;;;-4.72;70.84;101248.88;107585;1253;112202;-61
2023/11/30 06:15:36;;;;;;;35.70;14.80;;;;;;;-4.69;70.95;101245.35;107634;1251;109905;-61
2023/11/30 06:18:04;;;;;;;34.80;15.20;;;;;;;-4.66;70.70;101246.70;107635;1255;108229;-61
2023/11/30 06:20:33;;;;;;;37.80;15.10;;;;;;;-4.62;70.71;101245.73;107460;1251;99232;-61
2023/11/30 06:23:01;;;;;;;32.50;14.00;;;;;;;-4.61;70.22;101251.86;107533;1254;99816;-60
2023/11/30 06:25:29;;;;;;;35.00;14.70;;;;;;;-4.62;70.27;101249.95;107643;1251;113231;-61
2023/11/30 06:27:58;;;;;;;30.40;13.90;;;;;;;-4.61;70.21;101256.58;107631;1251;109990;-61
2023/11/30 06:30:26;;;;;;;31.80;14.30;;;;;;;-4.62;70.14;101260.45;107558;1251;107686;-62
2023/11/30 06:32:54;;;;;;;34.00;14.60;;;;;;;-4.62;70.04;101266.92;107577;1249;99179;-62
2023/11/30 06:35:23;;;;;;;36.40;15.80;;;;;;;-4.60;69.97;101265.66;107543;1251;99377;-61
2023/11/30 06:37:51;;;;;;;34.30;17.50;;;;;;;-4.58;70.08;101274.73;107611;1254;113223;-62
2023/11/30 06:40:19;;;;;;;35.70;16.90;;;;;;;-4.55;69.92;101270.14;107654;1253;109607;-62
2023/11/30 06:42:47;;;;;;;39.50;17.30;;;;;;;-4.51;70.38;101267.77;107619;1251;108262;-61
2023/11/30 06:45:16;;;;;;;53.40;15.90;;;;;;;-4.48;69.96;101262.98;107584;1250;99879;-62
2023/11/30 06:47:45;;;;;;;39.20;16.50;;;;;;;-4.45;70.04;101260.50;107564;1250;99172;-62
2023/11/30 06:50:13;;;;;;;33.00;16.20;;;;;;;-4.41;70.15;101269.36;107658;1251;111617;-63
2023/11/30 06:52:41;;;;;;;35.30;14.80;;;;;;;-4.37;70.03;101271.57;107633;1252;110027;-62
2023/11/30 06:55:10;;;;;;;40.10;16.80;;;;;;;-4.32;70.06;101275.84;107599;1251;107069;-62
2023/11/30 06:57:38;;;;;;;36.40;16.80;;;;;;;-4.26;69.80;101281.70;107587;1251;99035;-62
2023/11/30 07:00:11;;;;;;;32.90;16.70;;;;;;;-4.19;70.25;101285.23;107622;1254;99242;-62
2023/11/30 07:02:39;;;;;;;30.90;15.40;;;;;;;-4.11;69.82;101287.18;107538;1253;112914;-60
2023/11/30 07:05:08;;;;;;;56.00;15.20;;;;;;;-4.04;70.21;101286.52;107585;1254;110022;-60
2023/11/30 07:07:36;;;;;;;29.70;14.40;;;;;;;-3.97;69.92;101283.74;107607;1250;108134;-61
2023/11/30 07:10:07;;;;;;;35.80;14.90;;;;;;;-3.88;70.05;101286.74;107603;1250;99324;-61
2023/11/30 07:12:35;;;;;;;33.40;13.50;;;;;;;-3.80;70.30;101288.50;107538;1251;99060;-61
2023/11/30 07:15:05;;;;;;;30.80;14.30;;;;;;;-3.71;70.13;101291.65;107619;1252;113990;-61
2023/11/30 07:17:33;;;;;;;29.20;14.30;;;;;;;-3.62;69.77;101288.30;107615;1251;109026;-63
2023/11/30 07:20:01;;;;;;;27.70;13.60;;;;;;;-3.53;70.15;101285.67;107639;1254;107664;-63
2023/11/30 07:22:30;;;;;;;27.20;12.50;;;;;;;-3.45;69.83;101270.05;107610;1251;99151;-61
2023/11/30 07:24:58;;;;;;;29.00;13.10;;;;;;;-3.37;69.85;101257.42;107639;1251;99705;-61
2023/11/30 07:27:26;;;;;;;32.20;13.00;;;;;;;-3.28;70.15;101268.42;107599;1251;113504;-61
2023/11/30 07:29:55;;;;;;;28.30;13.80;;;;;;;-3.19;70.12;101262.27;107583;1253;109052;-65
2023/11/30 07:32:23;;;;;;;31.80;14.30;;;;;;;-3.09;70.21;101256.96;107553;1251;108572;-60
2023/11/30 07:34:52;;;;;;;28.90;13.60;;;;;;;-2.99;69.96;101256.35;107636;1251;99174;-61
2023/11/30 07:37:22;;;;;;;38.60;14.80;;;;;;;-2.87;70.32;101253.08;107583;1251;99734;-63
2023/11/30 07:39:50;;;;;;;35.70;16.30;;;;;;;-2.74;70.49;101255.02;107632;1251;113668;-61
2023/11/30 07:42:20;;;;;;;37.00;16.60;;;;;;;-2.58;70.63;101251.10;107591;1250;111606;-61
2023/11/30 07:45:02;;;;;;;33.80;14.10;;;;;;;-2.35;71.06;101250.34;107542;1251;109291;-60
2023/11/30 07:47:31;;;;;;;31.50;14.00;;;;;;;-2.15;70.67;101249.08;107581;1251;99189;-60
2023/11/30 07:49:59;;;;;;;28.70;12.50;;;;;;;-1.94;69.82;101247.79;107429;1251;99067;-61
2023/11/30 07:52:28;;;;;;;30.00;12.50;;;;;;;-1.74;70.12;101243.68;107543;1253;113186;-64
2023/11/30 07:54:57;;;;;;;25.40;11.80;;;;;;;-1.52;69.36;101244.79;107496;1253;110803;-63
2023/11/30 07:57:25;;;;;;;34.40;11.90;;;;;;;-1.31;69.28;101237.80;107480;1251;108657;-63
2023/11/30 07:59:54;;;;;;;19.70;10.30;;;;;;;-1.05;69.07;101237.01;107455;1255;99207;-61
2023/11/30 08:02:22;;;;;;;20.50;10.00;;;;;;;-0.82;68.68;101237.83;107471;1251;99172;-61
2023/11/30 08:04:50;;;;;;;25.40;9.50;;;;;;;-0.54;67.92;101239.54;107524;1250;112843;-62
2023/11/30 08:07:19;;;;;;;25.30;12.40;;;;;;;-0.27;67.09;101237.16;107468;1253;108948;-60
2023/11/30 08:09:47;;;;;;;25.60;9.10;;;;;;;0.05;65.99;101234.25;107598;1252;107186;-61
2023/11/30 08:12:15;;;;;;;26.10;8.10;;;;;;;0.34;61.74;101232.47;107496;1251;99299;-62
2023/11/30 08:14:44;;;;;;;17.00;7.90;;;;;;;0.57;58.77;101234.21;107480;1255;99170;-60
2023/11/30 08:17:12;;;;;;;17.80;8.00;;;;;;;0.91;56.97;101236.23;107472;1251;113227;-60
2023/11/30 08:19:40;;;;;;;15.60;7.20;;;;;;;1.46;56.82;101233.41;107508;1255;109658;-62
2023/11/30 08:22:09;;;;;;;18.90;8.40;;;;;;;2.13;55.70;101230.64;107485;1255;107900;-61
2023/11/30 08:24:41;;;;;;;12.30;6.80;;;;;;;2.83;52.54;101227.86;107487;1255;99326;-62
2023/11/30 08:27:09;;;;;;;12.40;6.30;;;;;;;3.36;51.27;101228.64;107514;1253;99717;-60
2023/11/30 08:29:37;;;;;;;19.60;9.10;;;;;;;3.74;51.38;101233.28;107501;1254;112854;-61
2023/11/30 08:32:05;;;;;;;14.00;7.10;;;;;;;3.96;49.09;101234.03;107534;1251;108947;-61
2023/11/30 08:34:34;;;;;;;25.10;7.50;;;;;;;4.07;48.55;101233.45;107494;1252;106530;-62
2023/11/30 08:37:02;;;;;;;24.20;9.30;;;;;;;4.40;48.63;101228.63;107473;1251;99183;-62
2023/11/30 08:39:30;;;;;;;17.90;7.10;;;;;;;4.94;48.58;101229.52;107551;1251;99349;-63
2023/11/30 08:41:58;;;;;;;17.70;7.20;;;;;;;5.52;48.60;101220.99;107541;1251;112502;-61
2023/11/30 08:44:27;;;;;;;21.10;8.80;;;;;;;6.09;47.65;101209.88;107491;1251;108906;-62
2023/11/30 08:46:55;;;;;;;17.20;7.50;;;;;;;6.58;46.20;101207.39;107438;1251;107254;-62
2023/11/30 08:49:24;;;;;;;18.60;8.10;;;;;;;7.10;43.07;101203.95;107606;1255;99288;-62
2023/11/30 08:51:52;;;;;;;20.60;8.10;;;;;;;7.43;43.24;101195.83;107616;1251;99800;-61
2023/11/30 08:54:21;;;;;;;16.70;7.20;;;;;;;7.83;42.77;101195.61;107557;1251;112297;-61
2023/11/30 08:56:50;;;;;;;19.60;7.50;;;;;;;8.12;41.00;101196.94;107540;1251;109994;-61
2023/11/30 08:59:19;;;;;;;14.70;7.40;;;;;;;8.44;41.21;101183.07;107506;1253;109287;-63
2023/11/30 09:01:48;;;;;;;20.30;6.90;;;;;;;8.89;42.05;101176.33;107443;1251;99292;-62
2023/11/30 09:04:17;;;;;;;17.70;8.10;;;;;;;9.38;42.15;101170.69;107569;1251;99085;-62
2023/11/30 09:06:45;;;;;;;16.40;7.40;;;;;;;9.85;42.21;101167.60;107513;1253;113256;-62
2023/11/30 09:09:14;;;;;;;13.90;7.30;;;;;;;10.35;38.76;101161.46;107482;1253;109997;-62
2023/11/30 09:11:44;;;;;;;12.00;7.50;;;;;;;10.52;37.52;101160.14;107441;1253;108194;-62
2023/11/30 09:14:15;;;;;;;14.00;8.10;;;;;;;10.75;36.19;101159.70;107524;1251;99398;-62
2023/11/30 09:16:43;;;;;;;14.00;7.30;;;;;;;10.91;35.91;101157.61;107619;1253;99061;-61
2023/11/30 09:19:11;;;;;;;11.60;7.60;;;;;;;11.19;32.99;101160.30;107603;1251;115318;-61
2023/11/30 09:21:39;;;;;;;11.70;7.70;;;;;;;11.12;34.49;101155.88;107589;1257;109712;-62
2023/11/30 09:24:09;;;;;;;14.70;8.00;;;;;;;11.28;33.81;101151.06;107638;1254;108455;-61
2023/11/30 09:26:38;;;;;;;14.30;8.60;;;;;;;11.33;33.98;101156.05;107541;1251;99345;-62
2023/11/30 09:29:08;;;;;;;13.90;8.60;;;;;;;11.51;33.24;101157.95;107497;1252;99737;-61
2023/11/30 09:31:43;;;;;;;21.10;8.60;;;;;;;11.60;32.11;101158.60;107633;1251;113460;-62
2023/11/30 09:34:12;;;;;;;16.50;8.50;;;;;;;11.50;31.43;101163.55;107606;1251;108729;-61
2023/11/30 09:36:40;;;;;;;15.50;8.30;;;;;;;11.40;33.71;101167.27;107623;1251;107373;-62
2023/11/30 09:39:08;;;;;;;13.10;8.00;;;;;;;11.67;33.30;101175.44;107659;1251;99240;-62
2023/11/30 09:41:40;;;;;;;13.10;9.10;;;;;;;11.72;32.52;101182.16;107669;1251;99084;-62
2023/11/30 09:44:11;;;;;;;12.70;8.60;;;;;;;11.40;32.05;101180.09;107566;1252;112653;-61
2023/11/30 09:46:41;;;;;;;13.40;8.40;;;;;;;11.71;32.18;101175.25;107625;1251;107512;-62
2023/11/30 09:49:09;;;;;;;18.70;8.70;;;;;;;12.11;31.87;101164.81;107604;1251;106457;-61
2023/11/30 09:51:41;;;;;;;14.60;8.30;;;;;;;12.31;32.33;101168.77;107484;1253;99161;-62
2023/11/30 09:54:09;;;;;;;13.30;8.60;;;;;;;12.58;31.46;101177.73;107562;1251;99701;-63
2023/11/30 09:56:38;;;;;;;15.60;8.70;;;;;;;12.73;31.75;101164.48;107531;1253;114118;-63
2023/11/30 09:59:06;;;;;;;14.30;8.90;;;;;;;12.86;31.54;101157.03;107488;1251;108806;-62
2023/11/30 10:01:35;;;;;;;17.30;8.80;;;;;;;13.04;32.87;101162.30;107490;1253;107252;-63
2023/11/30 10:04:17;;;;;;;13.10;8.40;;;;;;;13.43;31.68;101162.91;107490;1252;99200;-62
2023/11/30 10:06:48;;;;;;;16.90;8.10;;;;;;;13.74;30.90;101143.03;107494;1252;99095;-62
2023/11/30 10:09:16;;;;;;;12.00;8.60;;;;;;;13.86;32.12;101137.15;107544;1251;113149;-62
2023/11/30 10:11:44;;;;;;;17.10;8.80;;;;;;;14.03;30.58;101135.91;107551;1253;109996;-62
2023/11/30 10:14:13;;;;;;;15.70;8.40;;;;;;;14.07;28.90;101134.57;106736;1253;946677;-62
2023/11/30 10:16:41;;;;;;;15.10;9.50;;;;;;;13.58;30.12;101122.22;107459;1255;99186;-61
2023/11/30 10:19:13;;;;;;;18.40;8.30;;;;;;;13.45;31.18;101124.70;107486;1253;99299;-62
2023/11/30 10:21:41;;;;;;;13.60;8.60;;;;;;;13.59;30.19;101124.95;107466;1253;113671;-62
2023/11/30 10:24:10;;;;;;;20.90;8.80;;;;;;;13.79;31.03;101116.95;107459;1255;109956;-63
2023/11/30 10:26:43;;;;;;;18.40;8.80;;;;;;;14.17;30.28;101114.93;107491;1253;108359;-63
2023/11/30 10:29:15;;;;;;;11.70;8.30;;;;;;;14.36;29.14;101112.84;107463;1252;99270;-62
2023/11/30 10:31:47;;;;;;;11.50;7.80;;;;;;;14.16;28.71;101107.98;107464;1252;99173;-61
2023/11/30 10:34:21;;;;;;;13.50;8.70;;;;;;;13.55;28.59;101108.02;107280;1253;113687;-61
2023/11/30 10:36:51;;;;;;;14.60;9.10;;;;;;;12.76;29.48;101104.10;107514;1255;109095;-61
2023/11/30 10:39:22;;;;;;;18.00;9.30;;;;;;;12.17;31.04;101098.85;107470;1252;108231;-61
2023/11/30 10:41:54;;;;;;;14.20;9.00;;;;;;;12.08;30.49;101100.16;107366;1253;99164;-61
2023/11/30 10:44:29;;;;;;;15.90;8.50;;;;;;;12.08;30.59;101089.38;107440;1253;99066;-61
2023/11/30 10:46:59;;;;;;;12.40;8.20;;;;;;;12.47;30.32;101088.54;107544;1252;112679;-62
2023/11/30 10:49:28;;;;;;;12.80;8.60;;;;;;;12.84;30.29;101080.86;107566;1252;109518;-62
2023/11/30 10:52:00;;;;;;;15.50;8.80;;;;;;;13.09;30.46;101075.85;107499;1253;107831;-62
2023/11/30 10:54:49;;;;;;;12.10;8.40;;;;;;;13.47;29.42;101077.98;107423;1253;99073;-62
2023/11/30 10:57:21;;;;;;;15.60;9.10;;;;;;;13.79;30.55;101076.00;107492;1253;99204;-62
2023/11/30 10:59:57;;;;;;;17.30;8.90;;;;;;;14.43;30.18;101069.91;107538;1253;113715;-62
2023/11/30 11:02:37;;;;;;;15.20;8.90;;;;;;;14.79;29.85;101067.38;107491;1253;109801;-64
2023/11/30 11:05:13;;;;;;;12.10;8.30;;;;;;;15.11;29.01;101057.36;107517;1253;108755;-65
2023/11/30 11:07:46;;;;;;;15.70;8.70;;;;;;;15.31;27.76;101054.67;107476;1253;99194;-63